Time;durP1;ratioP1;P1;durP2;ratioP2;P2;SDS_P1;SDS_P2;PMS_P1;PMS_P2;Temp;Humidity;BMP_temperature;BMP_pressure;BME280_temperature;BME280_humidity;BME280_pressure;Samples;Min_cycle;Max_cycle;Signal;HPM_P1;HPM_P2
2022/03/24 00:02:42;;;;;;;;;;;;;;;11.45;31.57;101859.50;5014507;28;19914;-80
2022/03/24 00:05:27;;;;;;;;;;;;;;;10.97;32.28;101862.28;5001419;28;19914;-81
2022/03/24 00:08:12;;;;;;;;;;;;;;;11.31;32.27;101859.44;5001792;28;19926;-82
2022/03/24 00:10:56;;;;;;;;;;;;;;;11.31;31.91;101853.16;5000538;28;19917;-82
2022/03/24 00:13:41;;;;;;;;;;;;;;;10.95;32.22;101850.06;5004904;28;19918;-83
2022/03/24 00:16:26;;;;;;;;;;;;;;;10.92;32.43;101850.66;4989039;28;19914;-82
2022/03/24 00:19:11;;;;;;;;;;;;;;;10.51;33.07;101844.84;5044539;22;19921;-72
2022/03/24 00:21:57;;;;;;;;;;;;;;;10.56;33.17;101842.88;5052738;28;20379;-72
2022/03/24 00:24:42;;;;;;;;;;;;;;;10.12;34.46;101847.56;5051720;28;19917;-73
2022/03/24 00:27:27;;;;;;;;;;;;;;;9.90;34.44;101845.31;5040487;28;19913;-73
2022/03/24 00:30:12;;;;;;;;;;;;;;;9.93;34.85;101839.31;5047632;28;19932;-72
2022/03/24 00:32:57;;;;;;;;;;;;;;;10.12;35.75;101833.97;5046165;28;20375;-72
2022/03/24 00:35:43;;;;;;;;;;;;;;;10.48;34.23;101834.50;5069205;28;20360;-74
2022/03/24 00:38:29;;;;;;;;;;;;;;;10.10;34.21;101828.03;5052940;28;20375;-73
2022/03/24 00:41:15;;;;;;;;;;;;;;;10.63;33.77;101834.34;5033436;28;20295;-73
2022/03/24 00:44:02;;;;;;;;;;;;;;;10.95;33.45;101826.38;5052355;28;19913;-74
2022/03/24 00:46:47;;;;;;;;;;;;;;;10.89;33.22;101827.53;5036462;28;19913;-74
2022/03/24 00:49:31;;;;;;;;;;;;;;;10.71;33.66;101823.69;5053689;28;19920;-77
2022/03/24 00:52:17;;;;;;;;;;;;;;;10.47;33.72;101819.28;5054270;28;19924;-76
2022/03/24 00:55:02;;;;;;;;;;;;;;;10.55;33.77;101818.69;5057270;28;19916;-76
2022/03/24 00:57:49;;;;;;;;;;;;;;;10.41;33.56;101815.03;5038271;28;20380;-77
2022/03/24 01:00:36;;;;;;;;;;;;;;;10.28;33.71;101814.59;5051765;28;19916;-77
2022/03/24 01:03:21;;;;;;;;;;;;;;;10.32;33.72;101811.28;5056853;28;20290;-76
2022/03/24 01:06:07;;;;;;;;;;;;;;;9.94;33.68;101818.38;5046593;28;19913;-74
2022/03/24 01:08:53;;;;;;;;;;;;;;;9.41;35.07;101819.00;5032027;28;19917;-74
2022/03/24 01:11:38;;;;;;;;;;;;;;;9.90;35.00;101815.44;5032986;28;19913;-73
2022/03/24 01:14:22;;;;;;;;;;;;;;;10.09;35.32;101815.53;5038570;28;19921;-76
2022/03/24 01:17:10;;;;;;;;;;;;;;;9.90;34.33;101804.56;5033040;28;19913;-75
2022/03/24 01:19:55;;;;;;;;;;;;;;;9.97;34.81;101815.91;5037939;28;19912;-75
2022/03/24 01:22:39;;;;;;;;;;;;;;;10.34;34.13;101807.19;5053052;28;20372;-75
2022/03/24 01:25:27;;;;;;;;;;;;;;;10.32;33.97;101812.09;5052664;28;20371;-75
2022/03/24 01:28:12;;;;;;;;;;;;;;;10.42;34.03;101813.91;5052550;28;19931;-75
2022/03/24 01:30:57;;;;;;;;;;;;;;;10.34;33.56;101814.53;5052410;28;19912;-76
2022/03/24 01:33:41;;;;;;;;;;;;;;;10.33;33.79;101813.72;5052385;28;20372;-75
2022/03/24 01:36:25;;;;;;;;;;;;;;;10.54;34.92;101811.59;5052445;28;19912;-76
2022/03/24 01:39:10;;;;;;;;;;;;;;;10.19;34.41;101810.88;5053792;28;19913;-75
2022/03/24 01:41:55;;;;;;;;;;;;;;;10.17;33.70;101801.34;5052407;28;19912;-75
2022/03/24 01:44:40;;;;;;;;;;;;;;;9.96;34.78;101806.13;5052481;28;20387;-74
2022/03/24 01:47:25;;;;;;;;;;;;;;;9.67;36.22;101805.25;5052254;28;19916;-74
2022/03/24 01:50:11;;;;;;;;;;;;;;;9.39;38.57;101802.19;5046366;28;20384;-74
2022/03/24 01:52:56;;;;;;;;;;;;;;;9.49;39.41;101797.78;5070773;28;19912;-75
2022/03/24 01:55:41;;;;;;;;;;;;;;;9.66;40.36;101795.50;5052256;28;19917;-73
2022/03/24 01:58:27;;;;;;;;;;;;;;;9.69;42.21;101792.22;5051691;28;19912;-74
2022/03/24 02:01:30;;;;;;;;;;;;;;;9.49;43.23;101805.94;5052099;28;19917;-73
2022/03/24 02:04:15;;;;;;;;;;;;;;;9.50;43.33;101794.00;5082085;28;19912;-73
2022/03/24 02:07:00;;;;;;;;;;;;;;;9.77;43.17;101784.28;5052367;28;19913;-74
2022/03/24 02:09:45;;;;;;;;;;;;;;;9.31;44.04;101793.81;5054435;28;19912;-74
2022/03/24 02:12:36;;;;;;;;;;;;;;;9.07;44.15;101793.66;5057682;28;19912;-74
2022/03/24 02:15:21;;;;;;;;;;;;;;;8.99;43.61;101794.22;5053706;28;19916;-72
2022/03/24 02:18:09;;;;;;;;;;;;;;;9.00;43.48;101788.53;5070065;28;20286;-74
2022/03/24 02:20:54;;;;;;;;;;;;;;;9.01;42.97;101784.75;5055053;28;19912;-75
2022/03/24 02:23:38;;;;;;;;;;;;;;;9.12;43.17;101785.50;5055958;28;19913;-74
2022/03/24 02:26:23;;;;;;;;;;;;;;;9.05;43.60;101787.69;5059539;28;19916;-74
2022/03/24 02:29:07;;;;;;;;;;;;;;;9.09;44.51;101785.25;5054868;28;20295;-74
2022/03/24 02:31:52;;;;;;;;;;;;;;;9.40;44.14;101782.06;5053979;28;19913;-74
2022/03/24 02:34:37;;;;;;;;;;;;;;;9.25;45.23;101784.06;5053288;28;19917;-74
2022/03/24 02:37:23;;;;;;;;;;;;;;;9.13;46.20;101781.72;5055692;28;20287;-74
2022/03/24 02:40:09;;;;;;;;;;;;;;;8.92;46.78;101782.88;5041628;28;19917;-74
2022/03/24 02:42:53;;;;;;;;;;;;;;;9.15;47.09;101774.09;5049515;28;19916;-75
2022/03/24 02:45:38;;;;;;;;;;;;;;;8.94;48.02;101777.97;5055580;28;19913;-73
2022/03/24 02:48:23;;;;;;;;;;;;;;;9.12;47.38;101774.66;5055388;28;20379;-74
2022/03/24 02:51:07;;;;;;;;;;;;;;;9.07;47.07;101776.56;5042929;28;20287;-76
2022/03/24 02:53:52;;;;;;;;;;;;;;;9.25;46.42;101773.22;5055336;28;20399;-76
2022/03/24 02:56:37;;;;;;;;;;;;;;;9.25;46.36;101784.06;5055712;28;19924;-76
2022/03/24 02:59:22;;;;;;;;;;;;;;;9.50;45.30;101775.78;5073764;28;19913;-76
2022/03/24 03:02:13;;;;;;;;;;;;;;;9.39;45.63;101777.75;5038354;28;19913;-76
2022/03/24 03:04:57;;;;;;;;;;;;;;;9.42;45.31;101774.47;5035487;28;19913;-76
2022/03/24 03:07:42;;;;;;;;;;;;;;;9.74;44.01;101776.69;5035624;28;20372;-76
2022/03/24 03:10:26;;;;;;;;;;;;;;;9.67;44.74;101775.38;5037886;28;19912;-76
2022/03/24 03:13:10;;;;;;;;;;;;;;;9.74;43.49;101775.88;5035771;28;19913;-76
2022/03/24 03:15:54;;;;;;;;;;;;;;;9.08;44.93;101779.03;5035181;28;19917;-76
2022/03/24 03:18:43;;;;;;;;;;;;;;;9.09;44.23;101772.50;5052295;28;19913;-76
2022/03/24 03:21:27;;;;;;;;;;;;;;;9.11;44.22;101774.91;5083334;28;19913;-75
2022/03/24 03:24:11;;;;;;;;;;;;;;;9.42;44.27;101779.91;5034946;28;19917;-76
2022/03/24 03:26:56;;;;;;;;;;;;;;;9.58;43.62;101771.66;5034905;28;20372;-75
2022/03/24 03:29:42;;;;;;;;;;;;;;;9.20;43.83;101771.34;5034732;28;19913;-74
2022/03/24 03:32:26;;;;;;;;;;;;;;;8.84;44.72;101767.16;5039770;28;19912;-75
2022/03/24 03:35:11;;;;;;;;;;;;;;;9.04;44.18;101777.16;5054630;28;19916;-75
2022/03/24 03:37:55;;;;;;;;;;;;;;;8.95;44.64;101775.00;5054515;28;19913;-74
2022/03/24 03:40:40;;;;;;;;;;;;;;;8.90;45.03;101782.34;5054172;28;19913;-76
2022/03/24 03:43:24;;;;;;;;;;;;;;;8.95;44.85;101787.75;5054191;28;19913;-76
2022/03/24 03:46:09;;;;;;;;;;;;;;;8.85;44.57;101783.19;5054718;28;19913;-76
2022/03/24 03:48:54;;;;;;;;;;;;;;;8.93;45.54;101784.50;5054425;28;19917;-74
2022/03/24 03:51:38;;;;;;;;;;;;;;;8.77;45.81;101769.38;5054672;28;19913;-74
2022/03/24 03:54:23;;;;;;;;;;;;;;;8.47;46.16;101779.25;5038732;28;19917;-74
2022/03/24 03:57:07;;;;;;;;;;;;;;;8.39;46.37;101771.66;5034479;28;19913;-74
2022/03/24 03:59:52;;;;;;;;;;;;;;;8.32;46.74;101773.84;5038323;28;19913;-73
2022/03/24 04:02:37;;;;;;;;;;;;;;;8.67;45.72;101772.94;5034304;28;19913;-74
2022/03/24 04:05:25;;;;;;;;;;;;;;;8.95;44.79;101771.47;5034201;28;19935;-75
2022/03/24 04:08:10;;;;;;;;;;;;;;;8.75;45.06;101772.38;5034614;28;19913;-76
2022/03/24 04:10:55;;;;;;;;;;;;;;;8.84;44.91;101776.13;5034033;28;19932;-75
2022/03/24 04:13:41;;;;;;;;;;;;;;;8.82;44.58;101774.78;5035496;28;19913;-75
2022/03/24 04:16:25;;;;;;;;;;;;;;;8.66;44.52;101774.03;5053905;28;20279;-74
2022/03/24 04:19:12;;;;;;;;;;;;;;;8.32;45.36;101773.84;5053626;28;20368;-75
2022/03/24 04:21:57;;;;;;;;;;;;;;;8.79;44.74;101773.44;5053872;28;19913;-74
2022/03/24 04:24:41;;;;;;;;;;;;;;;8.10;45.01;101767.88;5045711;28;19913;-75
2022/03/24 04:27:26;;;;;;;;;;;;;;;8.00;45.36;101773.31;5033769;28;19913;-75
2022/03/24 04:30:14;;;;;;;;;;;;;;;8.70;43.06;101774.28;5034629;28;19913;-75
2022/03/24 04:32:59;;;;;;;;;;;;;;;8.49;41.68;101768.91;5033706;28;19917;-73
2022/03/24 04:35:44;;;;;;;;;;;;;;;9.05;42.21;101773.31;5053555;28;19916;-73
2022/03/24 04:38:29;;;;;;;;;;;;;;;8.60;40.71;101772.41;5053537;28;19912;-74
2022/03/24 04:41:14;;;;;;;;;;;;;;;7.98;42.27;101770.06;5053295;28;19917;-74
2022/03/24 04:43:59;;;;;;;;;;;;;;;8.32;42.02;101771.16;5047677;28;20369;-74
2022/03/24 04:46:44;;;;;;;;;;;;;;;8.61;41.07;101773.22;5033383;28;19913;-74
2022/03/24 04:49:28;;;;;;;;;;;;;;;8.57;39.62;101773.78;5033383;28;19917;-74
2022/03/24 04:52:13;;;;;;;;;;;;;;;8.70;40.34;101777.81;5033327;28;19913;-75
2022/03/24 04:54:59;;;;;;;;;;;;;;;8.71;40.30;101784.88;5043343;28;19917;-75
2022/03/24 04:57:44;;;;;;;;;;;;;;;8.70;39.85;101779.72;5052849;28;19912;-74
2022/03/24 05:00:29;;;;;;;;;;;;;;;8.54;39.16;101787.06;5052644;28;20376;-74
2022/03/24 05:03:14;;;;;;;;;;;;;;;8.48;39.34;101788.97;5052878;28;19912;-72
2022/03/24 05:05:59;;;;;;;;;;;;;;;8.47;40.03;101790.09;5036022;28;19913;-73
2022/03/24 05:08:43;;;;;;;;;;;;;;;8.79;38.65;101791.59;5032962;28;19913;-76
2022/03/24 05:11:28;;;;;;;;;;;;;;;8.89;38.04;101794.28;5033050;28;19917;-75
2022/03/24 05:14:12;;;;;;;;;;;;;;;9.10;38.81;101800.44;5038547;28;19917;-76
2022/03/24 05:17:01;;;;;;;;;;;;;;;8.73;39.15;101795.44;5032697;28;19913;-74
2022/03/24 05:19:48;;;;;;;;;;;;;;;8.77;39.34;101799.22;5032496;28;19913;-74
2022/03/24 05:22:32;;;;;;;;;;;;;;;8.86;39.46;101800.25;5048127;28;19912;-73
2022/03/24 05:25:17;;;;;;;;;;;;;;;9.23;38.35;101808.78;5056073;28;20303;-74
2022/03/24 05:28:04;;;;;;;;;;;;;;;8.95;39.25;101804.84;5047269;28;19913;-74
2022/03/24 05:30:49;;;;;;;;;;;;;;;8.48;40.35;101805.25;5047445;28;21131;-73
2022/03/24 05:33:33;;;;;;;;;;;;;;;8.93;40.23;101815.16;5051175;28;19913;-73
2022/03/24 05:36:18;;;;;;;;;;;;;;;9.10;40.79;101817.53;5047108;28;19916;-74
2022/03/24 05:39:03;;;;;;;;;;;;;;;8.80;40.92;101817.63;5065409;28;19912;-73
2022/03/24 05:41:48;;;;;;;;;;;;;;;9.14;40.30;101817.81;5051636;28;19913;-73
2022/03/24 05:44:32;;;;;;;;;;;;;;;9.09;40.09;101817.81;5054237;28;19913;-73
2022/03/24 05:47:17;;;;;;;;;;;;;;;9.22;39.83;101812.59;5052097;28;19913;-72
2022/03/24 05:50:02;;;;;;;;;;;;;;;9.38;39.78;101822.28;5051343;28;19935;-73
2022/03/24 05:53:09;;;;;;;;;;;;;;;10.09;38.97;101816.34;5049309;28;19913;-72
2022/03/24 05:55:54;;;;;;;;;;;;;;;11.81;35.53;101825.25;5041068;28;19920;-72
2022/03/24 05:58:39;;;;;;;;;;;;;;;13.06;33.21;101830.63;5047599;28;19913;-73
2022/03/24 06:01:26;;;;;;;;;;;;;;;14.53;30.62;101826.09;5039562;28;19913;-73
2022/03/24 06:04:15;;;;;;;;;;;;;;;15.98;29.00;101829.50;5044156;28;19913;-73
2022/03/24 06:07:01;;;;;;;;;;;;;;;16.69;27.96;101832.59;5047348;28;19912;-74
2022/03/24 06:09:48;;;;;;;;;;;;;;;17.50;27.76;101835.06;5050518;28;19913;-76
2022/03/24 06:12:32;;;;;;;;;;;;;;;17.97;27.01;101826.63;5050341;28;19913;-76
2022/03/24 06:15:17;;;;;;;;;;;;;;;20.12;24.40;101832.78;5047677;28;19917;-76
2022/03/24 06:18:02;;;;;;;;;;;;;;;21.13;22.96;101827.50;5036285;28;19921;-75
2022/03/24 06:20:47;;;;;;;;;;;;;;;22.80;20.38;101834.53;5051426;28;20283;-76
2022/03/24 06:23:32;;;;;;;;;;;;;;;22.57;21.33;101833.69;5051777;28;19913;-70
2022/03/24 06:26:19;;;;;;;;;;;;;;;20.72;21.91;101828.09;5047584;28;19913;-73
2022/03/24 06:29:04;;;;;;;;;;;;;;;22.12;20.33;101831.69;5058956;28;19916;-74
2022/03/24 06:31:49;;;;;;;;;;;;;;;23.31;18.43;101831.34;5090211;22;19920;-82
2022/03/24 06:34:33;;;;;;;;;;;;;;;25.19;18.00;101831.44;5068773;28;20380;-80
2022/03/24 06:37:18;;;;;;;;;;;;;;;25.88;16.17;101834.19;5069046;28;20418;-82
2022/03/24 06:40:04;;;;;;;;;;;;;;;24.47;17.47;101832.00;5072500;28;19912;-81
2022/03/24 06:42:49;;;;;;;;;;;;;;;26.32;16.47;101831.94;5067665;28;19912;-82
2022/03/24 06:45:34;;;;;;;;;;;;;;;26.57;15.93;101831.97;5069049;28;20304;-82
2022/03/24 06:48:19;;;;;;;;;;;;;;;27.65;14.34;101842.66;5047612;28;20397;-81
2022/03/24 06:51:04;;;;;;;;;;;;;;;26.12;15.87;101835.44;5054431;28;19913;-84
2022/03/24 06:53:49;;;;;;;;;;;;;;;28.65;13.52;101834.53;5054299;28;19913;-82
2022/03/24 06:56:34;;;;;;;;;;;;;;;30.90;12.10;101841.38;5055857;28;19920;-82
2022/03/24 06:59:18;;;;;;;;;;;;;;;31.86;10.89;101845.16;5060053;28;21231;-81
2022/03/24 07:02:06;;;;;;;;;;;;;;;31.77;10.93;101848.59;5052530;28;19913;-84
2022/03/24 07:04:51;;;;;;;;;;;;;;;32.24;10.38;101843.56;5060854;28;19913;-83
2022/03/24 07:07:36;;;;;;;;;;;;;;;32.63;10.30;101848.25;5053214;28;19912;-83
2022/03/24 07:10:20;;;;;;;;;;;;;;;32.67;9.77;101836.91;5052469;28;19913;-81
2022/03/24 07:13:05;;;;;;;;;;;;;;;30.81;10.34;101843.94;5030611;28;19913;-82
2022/03/24 07:15:50;;;;;;;;;;;;;;;28.57;12.42;101833.78;5053910;28;19924;-86
2022/03/24 07:18:34;;;;;;;;;;;;;;;29.18;11.86;101834.06;5047899;28;19921;-82
2022/03/24 07:21:19;;;;;;;;;;;;;;;25.82;13.92;101824.59;5051600;28;19913;-82
2022/03/24 07:24:04;;;;;;;;;;;;;;;30.79;10.74;101848.38;5036781;28;19913;-84
2022/03/24 07:26:49;;;;;;;;;;;;;;;30.54;10.73;101826.31;5046349;28;19913;-85
2022/03/24 07:29:33;;;;;;;;;;;;;;;31.20;10.26;101839.66;5050843;28;19912;-84
2022/03/24 07:32:18;;;;;;;;;;;;;;;28.31;12.52;101834.34;5047702;28;19917;-84
2022/03/24 07:35:04;;;;;;;;;;;;;;;30.55;10.96;101837.13;5059517;28;19920;-84
2022/03/24 07:37:50;;;;;;;;;;;;;;;28.16;12.29;101833.66;5070901;28;20300;-84
2022/03/24 07:40:35;;;;;;;;;;;;;;;27.40;13.13;101827.94;5074775;28;19913;-85
2022/03/24 07:43:20;;;;;;;;;;;;;;;33.40;9.12;101839.00;5071651;28;19912;-86
2022/03/24 07:46:05;;;;;;;;;;;;;;;30.99;9.99;101847.22;5083068;28;20388;-83
2022/03/24 07:48:49;;;;;;;;;;;;;;;32.67;8.88;101839.72;5061537;28;19913;-84
2022/03/24 07:51:34;;;;;;;;;;;;;;;30.94;10.03;101839.28;5062425;28;19913;-84
2022/03/24 07:54:30;;;;;;;;;;;;;;;34.86;7.38;101845.81;5062536;28;19913;-85
2022/03/24 07:57:14;;;;;;;;;;;;;;;34.06;7.90;101842.34;5062738;28;19912;-86
2022/03/24 07:59:59;;;;;;;;;;;;;;;27.82;11.27;101833.41;5028612;28;20464;-85
2022/03/24 08:02:44;;;;;;;;;;;;;;;33.91;7.53;101845.59;5043507;28;20290;-85
2022/03/24 08:05:29;;;;;;;;;;;;;;;35.58;7.05;101857.78;5042297;28;19912;-85
2022/03/24 08:08:14;;;;;;;;;;;;;;;33.22;8.03;101844.34;5063656;28;19912;-84
2022/03/24 08:10:59;;;;;;;;;;;;;;;30.86;9.83;101842.66;5073549;28;19912;-85
2022/03/24 08:13:43;;;;;;;;;;;;;;;32.55;8.94;101851.69;5046722;28;19913;-85
2022/03/24 08:16:28;;;;;;;;;;;;;;;32.41;9.04;101846.41;5050680;28;19921;-83
2022/03/24 08:19:14;;;;;;;;;;;;;;;35.94;7.29;101862.13;5041497;28;19913;-85
2022/03/24 08:21:59;;;;;;;;;;;;;;;30.94;9.87;101858.94;5045711;28;19913;-85
2022/03/24 08:24:44;;;;;;;;;;;;;;;33.10;8.60;101848.66;5048271;28;19913;-85
2022/03/24 08:27:28;;;;;;;;;;;;;;;34.78;8.24;101861.47;5041596;28;19912;-85
2022/03/24 08:30:13;;;;;;;;;;;;;;;35.12;7.92;101869.97;5046598;28;19913;-84
2022/03/24 08:32:57;;;;;;;;;;;;;;;34.81;8.77;101829.44;5044012;28;19920;-84
2022/03/24 08:35:42;;;;;;;;;;;;;;;32.95;9.80;101867.19;5044372;28;19917;-83
2022/03/24 08:38:26;;;;;;;;;;;;;;;36.52;8.08;101870.75;5054903;28;19921;-84
2022/03/24 08:41:11;;;;;;;;;;;;;;;36.17;8.00;101870.13;5054382;28;19912;-85
2022/03/24 08:43:56;;;;;;;;;;;;;;;35.44;8.76;101866.03;5040788;28;19913;-84
2022/03/24 08:46:40;;;;;;;;;;;;;;;37.26;7.69;101864.78;5049031;28;19918;-87
2022/03/24 08:49:26;;;;;;;;;;;;;;;35.09;8.83;101868.06;5035275;28;19917;-87
2022/03/24 08:52:10;;;;;;;;;;;;;;;36.25;8.60;101877.13;5044866;28;19912;-87
2022/03/24 08:54:55;;;;;;;;;;;;;;;33.93;9.71;101876.22;5039814;28;19916;-87
2022/03/24 08:57:41;;;;;;;;;;;;;;;37.90;7.32;101878.91;5030057;28;19913;-88
2022/03/24 09:00:25;;;;;;;;;;;;;;;36.12;8.13;101879.22;5028642;28;20329;-87
2022/03/24 09:03:10;;;;;;;;;;;;;;;35.25;8.64;101878.44;5025881;28;19913;-87
2022/03/24 09:05:55;;;;;;;;;;;;;;;37.15;7.39;101880.69;5029102;28;19913;-86
2022/03/24 09:08:39;;;;;;;;;;;;;;;34.86;8.59;101876.91;5028119;28;19913;-87
2022/03/24 09:11:24;;;;;;;;;;;;;;;37.50;7.50;101870.59;5028400;28;19914;-87
2022/03/24 09:14:09;;;;;;;;;;;;;;;36.55;7.28;101883.19;5040427;28;19917;-87
2022/03/24 09:16:53;;;;;;;;;;;;;;;37.22;7.02;101871.88;5027212;28;19917;-87
2022/03/24 09:19:38;;;;;;;;;;;;;;;38.53;6.64;101879.19;5027044;28;19913;-87
2022/03/24 09:22:23;;;;;;;;;;;;;;;38.65;6.54;101876.13;5029844;28;19917;-86
2022/03/24 09:25:08;;;;;;;;;;;;;;;39.40;6.27;101880.84;5031820;28;20544;-87
2022/03/24 09:27:52;;;;;;;;;;;;;;;36.70;8.02;101872.88;5047416;28;19913;-88
2022/03/24 09:30:36;;;;;;;;;;;;;;;38.07;7.02;101870.84;5059149;28;20317;-87
2022/03/24 09:33:21;;;;;;;;;;;;;;;37.98;7.62;101874.47;5049371;28;19912;-88
2022/03/24 09:36:06;;;;;;;;;;;;;;;38.30;6.62;101877.88;5046514;28;19916;-87
2022/03/24 09:38:50;;;;;;;;;;;;;;;37.24;7.71;101877.84;5044667;28;19917;-88
2022/03/24 09:41:35;;;;;;;;;;;;;;;39.70;5.60;101877.53;5045339;28;19913;-87
2022/03/24 09:44:20;;;;;;;;;;;;;;;37.39;7.06;101869.50;5046289;28;19912;-87
2022/03/24 09:47:04;;;;;;;;;;;;;;;40.62;6.12;101882.19;5043727;28;19912;-88
2022/03/24 09:49:49;;;;;;;;;;;;;;;41.32;5.33;101880.00;5028495;28;19913;-87
2022/03/24 09:52:33;;;;;;;;;;;;;;;41.88;4.86;101874.88;5026615;28;19913;-87
2022/03/24 09:55:18;;;;;;;;;;;;;;;36.57;7.46;101875.03;5044181;28;19921;-87
2022/03/24 09:58:06;;;;;;;;;;;;;;;38.74;5.82;101873.22;5047244;28;20293;-86
2022/03/24 10:00:50;;;;;;;;;;;;;;;39.73;5.45;101868.00;5058073;28;19913;-87
2022/03/24 10:03:36;;;;;;;;;;;;;;;37.90;6.57;101864.69;5044744;28;19912;-87
2022/03/24 10:06:20;;;;;;;;;;;;;;;37.64;7.25;101863.53;5046939;28;19912;-86
2022/03/24 10:09:06;;;;;;;;;;;;;;;37.65;5.88;101856.56;5031872;28;19913;-87
2022/03/24 10:11:50;;;;;;;;;;;;;;;32.74;8.85;101845.19;5046061;28;19912;-86
2022/03/24 10:14:35;;;;;;;;;;;;;;;28.37;12.30;101839.13;5051526;28;19913;-86
2022/03/24 10:17:19;;;;;;;;;;;;;;;27.23;13.61;101838.75;5049129;28;19912;-86
2022/03/24 10:20:05;;;;;;;;;;;;;;;26.07;14.04;101833.84;5041900;28;19912;-85
2022/03/24 10:22:57;;;;;;;;;;;;;;;25.28;14.76;101825.50;5032591;28;19912;-85
2022/03/24 10:25:44;;;;;;;;;;;;;;;25.30;16.01;101825.91;5055972;28;19913;-86
2022/03/24 10:28:28;;;;;;;;;;;;;;;24.43;14.57;101827.59;5028388;28;19917;-86
2022/03/24 10:31:12;;;;;;;;;;;;;;;24.69;16.16;101819.88;5054613;28;19916;-86
2022/03/24 10:33:57;;;;;;;;;;;;;;;24.88;15.98;101815.28;5054071;28;19912;-85
2022/03/24 10:36:42;;;;;;;;;;;;;;;24.70;16.95;101813.13;5058727;28;19920;-85
2022/03/24 10:39:26;;;;;;;;;;;;;;;24.71;15.00;101813.94;5040347;28;19917;-86
2022/03/24 10:42:17;;;;;;;;;;;;;;;24.51;16.84;101810.59;5044652;28;19916;-85
2022/03/24 10:45:06;;;;;;;;;;;;;;;24.26;15.99;101806.78;5065198;28;19913;-86
2022/03/24 10:47:52;;;;;;;;;;;;;;;24.20;17.30;101800.75;5053621;28;20400;-86
2022/03/24 10:50:40;;;;;;;;;;;;;;;24.43;17.28;101799.78;5052509;28;19912;-86
2022/03/24 10:53:25;;;;;;;;;;;;;;;24.51;14.50;101796.69;5041932;28;19913;-86
2022/03/24 10:56:17;;;;;;;;;;;;;;;24.23;15.91;101790.84;5035084;28;19920;-86
2022/03/24 10:59:03;;;;;;;;;;;;;;;24.29;17.70;101797.66;5049205;28;21718;-85
2022/03/24 11:01:49;;;;;;;;;;;;;;;24.32;14.55;101794.13;5035975;28;19921;-86
2022/03/24 11:04:34;;;;;;;;;;;;;;;24.41;17.47;101791.03;5038535;28;19920;-85
2022/03/24 11:07:25;;;;;;;;;;;;;;;24.48;15.80;101791.09;5051917;28;19916;-86
2022/03/24 11:10:10;;;;;;;;;;;;;;;24.20;16.59;101780.50;5039568;28;20552;-86
2022/03/24 11:12:59;;;;;;;;;;;;;;;24.11;16.17;101771.63;5049662;28;19912;-86
2022/03/24 11:15:43;;;;;;;;;;;;;;;24.44;16.03;101781.91;5052499;28;19917;-87
2022/03/24 11:18:28;;;;;;;;;;;;;;;24.48;17.56;101779.97;5056608;28;19916;-86
2022/03/24 11:21:33;;;;;;;;;;;;;;;24.39;17.44;101774.72;5046955;28;19912;-86
2022/03/24 11:24:18;;;;;;;;;;;;;;;24.61;15.17;101770.13;5043692;28;19921;-86
2022/03/24 11:27:03;;;;;;;;;;;;;;;24.61;16.12;101768.16;5048445;28;19921;-86
2022/03/24 11:29:48;;;;;;;;;;;;;;;24.71;14.82;101761.06;5051795;28;19916;-85
2022/03/24 11:32:35;;;;;;;;;;;;;;;24.52;17.52;101759.34;5044469;28;19912;-86
2022/03/24 11:35:20;;;;;;;;;;;;;;;24.30;16.81;101754.78;5049153;28;19916;-86
2022/03/24 11:38:05;;;;;;;;;;;;;;;24.42;17.43;101754.50;5044834;28;19913;-85
2022/03/24 11:40:50;;;;;;;;;;;;;;;24.42;15.77;101748.94;5056136;28;19913;-84
2022/03/24 11:43:36;;;;;;;;;;;;;;;24.75;14.18;101744.41;5044098;28;19920;-83
2022/03/24 11:46:29;;;;;;;;;;;;;;;24.72;15.82;101740.41;5043505;28;19920;-84
2022/03/24 11:49:18;;;;;;;;;;;;;;;24.94;15.88;101739.38;5048886;28;19913;-84
2022/03/24 11:52:02;;;;;;;;;;;;;;;24.86;16.93;101740.50;5042249;28;19913;-85
2022/03/24 11:54:52;;;;;;;;;;;;;;;25.18;14.42;101737.94;5064578;28;19913;-85
2022/03/24 11:57:37;;;;;;;;;;;;;;;24.88;15.89;101734.59;5056495;28;19925;-85
2022/03/24 12:00:24;;;;;;;;;;;;;;;24.77;16.86;101728.13;5033088;28;19913;-84
2022/03/24 12:03:28;;;;;;;;;;;;;;;24.23;17.33;101724.13;5049586;28;19917;-84
2022/03/24 12:06:14;;;;;;;;;;;;;;;24.57;16.48;101719.25;5052906;28;19917;-84
2022/03/24 12:09:04;;;;;;;;;;;;;;;24.75;16.36;101717.38;5051587;28;20377;-83
2022/03/24 12:11:53;;;;;;;;;;;;;;;24.74;15.92;101710.22;5046237;28;19920;-85
2022/03/24 12:14:41;;;;;;;;;;;;;;;24.23;17.21;101713.00;5059126;28;19921;-84
2022/03/24 12:17:34;;;;;;;;;;;;;;;24.33;16.33;101703.94;5048801;28;19917;-83
2022/03/24 12:20:20;;;;;;;;;;;;;;;24.19;18.17;101701.06;5063459;28;19912;-83
2022/03/24 12:23:04;;;;;;;;;;;;;;;24.00;17.95;101687.34;5062301;28;19917;-83
2022/03/24 12:26:08;;;;;;;;;;;;;;;24.40;16.53;101698.44;5058631;28;19920;-83
2022/03/24 12:29:13;;;;;;;;;;;;;;;24.41;17.07;101696.47;5070841;28;19913;-83
2022/03/24 12:32:05;;;;;;;;;;;;;;;24.56;16.42;101698.97;5038758;28;19913;-84
2022/03/24 12:34:50;;;;;;;;;;;;;;;24.35;16.95;101678.53;5035819;28;19913;-84
2022/03/24 12:37:34;;;;;;;;;;;;;;;24.34;16.18;101683.31;5062416;28;19916;-84
2022/03/24 12:40:19;;;;;;;;;;;;;;;24.71;14.72;101675.63;5046760;28;19912;-84
2022/03/24 12:43:03;;;;;;;;;;;;;;;24.98;13.00;101679.00;5037896;28;19913;-83
2022/03/24 12:45:48;;;;;;;;;;;;;;;25.13;12.78;101677.06;5036192;28;19920;-84
2022/03/24 12:48:42;;;;;;;;;;;;;;;25.11;14.67;101673.88;5053213;28;19912;-83
2022/03/24 12:51:28;;;;;;;;;;;;;;;25.10;16.04;101675.06;5037683;28;20297;-84
2022/03/24 12:54:17;;;;;;;;;;;;;;;25.20;13.76;101673.50;5038429;28;19913;-84
2022/03/24 12:57:21;;;;;;;;;;;;;;;25.20;14.83;101671.53;5045392;28;19921;-84
2022/03/24 13:00:07;;;;;;;;;;;;;;;25.28;14.90;101670.38;5046243;28;19913;-84
2022/03/24 13:02:53;;;;;;;;;;;;;;;25.21;15.99;101661.19;5042830;28;19913;-84
2022/03/24 13:05:42;;;;;;;;;;;;;;;25.16;16.64;101665.16;5046675;28;19913;-84
2022/03/24 13:08:27;;;;;;;;;;;;;;;24.74;16.85;101653.78;5043497;28;19912;-84
2022/03/24 13:11:12;;;;;;;;;;;;;;;24.71;17.21;101656.16;5037596;28;19917;-82
2022/03/24 13:13:58;;;;;;;;;;;;;;;24.78;16.56;101649.03;5050028;28;19912;-84
2022/03/24 13:16:57;;;;;;;;;;;;;;;24.92;16.80;101652.72;5045073;28;19917;-84
2022/03/24 13:19:43;;;;;;;;;;;;;;;24.84;17.14;101647.50;5032526;28;19917;-86
2022/03/24 13:22:28;;;;;;;;;;;;;;;24.67;17.19;101641.44;5050623;28;19912;-83
2022/03/24 13:25:15;;;;;;;;;;;;;;;24.55;17.19;101646.50;5037130;28;19913;-83
2022/03/24 13:28:02;;;;;;;;;;;;;;;24.59;16.73;101637.00;5046230;28;20430;-86
2022/03/24 13:30:47;;;;;;;;;;;;;;;24.56;16.89;101639.75;5044762;28;19912;-83
2022/03/24 13:33:31;;;;;;;;;;;;;;;24.77;15.02;101630.75;5054096;28;19913;-84
2022/03/24 13:36:18;;;;;;;;;;;;;;;24.49;17.24;101637.72;5041740;28;19921;-85
2022/03/24 13:39:03;;;;;;;;;;;;;;;24.36;17.44;101630.09;5051578;28;19920;-83
2022/03/24 13:41:47;;;;;;;;;;;;;;;24.31;17.00;101633.25;5035509;28;19913;-84
2022/03/24 13:44:34;;;;;;;;;;;;;;;23.95;17.27;101618.25;5035156;28;19913;-84
2022/03/24 13:47:22;;;;;;;;;;;;;;;24.24;16.10;101618.09;5045387;28;19916;-84
2022/03/24 13:50:08;;;;;;;;;;;;;;;24.40;15.60;101606.69;5036043;28;19913;-84
2022/03/24 13:52:54;;;;;;;;;;;;;;;23.93;17.24;101607.50;5031913;28;19913;-84
2022/03/24 13:55:40;;;;;;;;;;;;;;;24.12;16.61;101612.03;5041163;28;19917;-83
2022/03/24 13:58:25;;;;;;;;;;;;;;;23.95;16.76;101609.91;5047508;28;19921;-84
2022/03/24 14:01:14;;;;;;;;;;;;;;;23.79;16.36;101599.84;5036277;28;19920;-83
2022/03/24 14:04:00;;;;;;;;;;;;;;;24.02;16.37;101596.09;5048005;28;20369;-84
2022/03/24 14:07:03;;;;;;;;;;;;;;;23.74;17.32;101596.63;5050707;28;19921;-84
2022/03/24 14:09:54;;;;;;;;;;;;;;;23.62;17.65;101594.94;5055166;28;19913;-84
2022/03/24 14:12:59;;;;;;;;;;;;;;;23.54;18.19;101598.84;5047593;28;19916;-85
2022/03/24 14:15:44;;;;;;;;;;;;;;;23.47;18.04;101592.44;5033317;28;19917;-86
2022/03/24 14:18:29;;;;;;;;;;;;;;;23.30;19.33;101599.34;5044333;28;19917;-83